KDLF/DLF METAR and TAF weather

Enter ICAO airport designator
Station Type Date Time Source
KDLF METAR 2023/02/06 16:10 UTC NOAA

KDLF 061610Z AUTO 14014KT 10SM OVC007 15/14 A2999 RMK AO2 SLP152 $


Station Type Date Time Source
KDLF Decoded METAR 2023/02/06 16:10 UTC NOAA

Laughlin, Laughlin Air Force Base Auxiliary Airfield, TX, United States (KDLF) 29-07-00N 100-28-00W 294M
Feb 06, 2023 - 11:10 AM EST / 2023.02.06 1610 UTC
Wind: from the SE (140 degrees) at 16 MPH (14 KT):0
Visibility: 10 mile(s):0
Sky conditions: overcast
Temperature: 59 F (15 C)
Dew Point: 57 F (14 C)
Relative Humidity: 93%
Pressure (altimeter): 29.99 in. Hg (1015 hPa)
ob: KDLF 061610Z AUTO 14014KT 10SM OVC007 15/14 A2999 RMK AO2 SLP152
cycle: 16

Station Type Date Time Source
KDLF TAF 2023/02/06 15:15 UTC NOAA

TAF KDLF 061510Z 0615/0719 13012G18KT 9999 BKN006 OVC008 QNH3000INS
TEMPO 0615/0616 4800 BR BKN002
BECMG 0616/0617 14012G20KT 9999 SCT010 BKN015 QNH2999INS
BECMG 0617/0618 14012G20KT 9999 SCT020 SCT025 QNH2982INS
BECMG 0623/0624 13010KT 9999 FEW250 QNH2981INS
BECMG 0708/0709 14012KT 9999 SCT010 BKN014 QNH2982
BECMG 0710/0711 15012KT 8000 -DZ BKN008 QNH2986INS
TEMPO 0712/0716 BKN004
BECMG 0717/0718 32008KT 9999 SCT009 BKN015 QNH2996INS TX26/0621Z TN14/0615Z

Example: see airport list